Terminal Aerodrome Forecast
Issued by NWS

Home | Current Version | Previous Version | Text Only | Print | Product List | Glossary On
Versions: 1 2 3 4 5 6 7 8 9 10 11 12 13
000
FTUS44 KSJT 311100
TAFSOA
TAF
KSOA 311132Z 3112/0112 01008KT P6SM BKN015 BKN100
      TEMPO 3112/3114 SCT015
     FM311600 02008KT P6SM BKN035
     FM010200 03006KT P6SM BKN100=

USA.gov is the U.S. government's official web portal to all federal, state and local government web resources and services.